Shelby, Michigan
Current Conditions -  °F | °C
As of 6:14 AM on Saturday 25 Oct 2014 (Local Time) from KFFX Reporting Station
Clear Clear  
Wind Chill: 51°   Ceiling: Unl
Heat Index: 51°   Visibility: 7mi
Dew Point: 49°   Wind: 5mph
Humidity: 94%   Direction: 250°WSW
Pressure: 29.82"   Gusts: NA
Location:  43.61°N, 86.36°W
Report Text: KFFX 251014Z AUTO 25004KT 7SM CLR 11/10 A2982 RMK AO2 T01060097
Loading
Personal Weather Stations






























Interactive Weather Map
Tropical Storm Tracking
New forecast layout! Learn more

10-Day Weather Forecast

Advertisements
Track Severe Weather on mobile